Time;durP1;ratioP1;P1;durP2;ratioP2;P2;SDS_P1;SDS_P2;PMS_P1;PMS_P2;Temp;Humidity;BMP_temperature;BMP_pressure;BME280_temperature;BME280_humidity;BME280_pressure;Samples;Min_cycle;Max_cycle;Signal;HPM_P1;HPM_P2
2021/05/22 00:02:16;;;;;;;0.80;0.80;;;14.90;52.50;;;;;;4991756;28;21041;-45
2021/05/22 00:04:41;;;;;;;0.70;0.70;;;14.90;52.40;;;;;;4991859;28;20218;-46
2021/05/22 00:07:07;;;;;;;1.20;0.93;;;14.70;52.40;;;;;;4990812;28;20562;-46
2021/05/22 00:09:33;;;;;;;1.10;0.80;;;14.70;52.70;;;;;;4991668;28;20613;-47
2021/05/22 00:11:58;;;;;;;2.40;0.80;;;14.60;52.80;;;;;;4992030;28;20187;-45
2021/05/22 00:14:24;;;;;;;0.70;0.70;;;14.70;52.70;;;;;;4991863;28;20249;-46
2021/05/22 00:16:49;;;;;;;1.67;0.80;;;14.90;52.70;;;;;;4992241;28;20205;-45
2021/05/22 00:19:17;;;;;;;1.10;0.70;;;14.90;52.40;;;;;;4991184;28;20206;-45
2021/05/22 00:21:42;;;;;;;1.33;1.10;;;14.80;52.40;;;;;;4991491;28;20225;-46
2021/05/22 00:24:09;;;;;;;1.43;0.80;;;14.70;52.60;;;;;;4991603;28;20441;-45
2021/05/22 00:26:35;;;;;;;0.70;0.70;;;14.80;52.50;;;;;;5003201;28;20713;-46
2021/05/22 00:29:01;;;;;;;3.43;0.70;;;14.70;52.20;;;;;;5010979;28;20543;-46
2021/05/22 00:31:26;;;;;;;0.97;0.67;;;14.60;52.20;;;;;;5011694;28;20235;-45
2021/05/22 00:33:52;;;;;;;1.67;0.80;;;14.60;52.20;;;;;;5009333;28;20197;-45
2021/05/22 00:36:18;;;;;;;2.83;0.97;;;14.70;52.10;;;;;;5013901;28;20617;-46
2021/05/22 00:38:43;;;;;;;1.17;1.00;;;14.60;51.80;;;;;;5014631;28;20230;-46
2021/05/22 00:41:09;;;;;;;0.90;0.70;;;14.50;51.90;;;;;;5006884;28;20643;-46
2021/05/22 00:43:35;;;;;;;0.87;0.70;;;14.40;52.00;;;;;;4995229;28;20198;-46
2021/05/22 00:46:00;;;;;;;0.80;0.67;;;14.50;51.90;;;;;;4996132;28;20561;-45
2021/05/22 00:48:26;;;;;;;1.90;0.90;;;14.70;51.70;;;;;;4995731;28;20195;-47
2021/05/22 00:50:52;;;;;;;1.40;0.63;;;14.60;51.40;;;;;;4995632;28;21151;-47
2021/05/22 00:53:18;;;;;;;2.40;1.10;;;14.70;51.30;;;;;;4994804;28;20202;-46
2021/05/22 00:55:44;;;;;;;1.37;0.70;;;14.60;51.40;;;;;;4995630;28;20241;-45
2021/05/22 00:58:10;;;;;;;1.70;0.97;;;14.40;51.60;;;;;;4995137;28;20433;-48
2021/05/22 01:00:39;;;;;;;1.27;0.77;;;14.60;51.90;;;;;;4993930;28;20469;-45
2021/05/22 01:03:08;;;;;;;0.70;0.67;;;14.50;51.60;;;;;;4994457;28;20532;-46
2021/05/22 01:05:34;;;;;;;0.90;0.60;;;14.50;51.80;;;;;;4995734;28;20505;-45
2021/05/22 01:08:13;;;;;;;0.90;0.80;;;14.30;52.00;;;;;;4994883;28;20798;-45
2021/05/22 01:10:39;;;;;;;2.30;0.70;;;14.40;52.30;;;;;;4995563;28;20433;-46
2021/05/22 01:13:04;;;;;;;0.90;0.53;;;14.10;52.60;;;;;;4994137;28;20457;-47
2021/05/22 01:15:32;;;;;;;0.70;0.60;;;14.20;52.70;;;;;;4995304;28;20422;-45
2021/05/22 01:17:58;;;;;;;0.60;0.60;;;14.20;52.70;;;;;;4994772;28;20222;-48
2021/05/22 01:20:31;;;;;;;2.37;0.90;;;14.30;52.70;;;;;;4995163;28;20932;-46
2021/05/22 01:23:00;;;;;;;1.40;0.90;;;14.50;52.40;;;;;;4993958;28;20230;-46
2021/05/22 01:25:39;;;;;;;1.10;0.77;;;14.50;52.20;;;;;;4996930;28;20817;-45
2021/05/22 01:28:07;;;;;;;1.10;0.93;;;14.50;52.30;;;;;;5012550;28;21259;-46
2021/05/22 01:30:33;;;;;;;0.70;0.70;;;14.60;52.20;;;;;;5014539;28;20464;-46
2021/05/22 01:32:59;;;;;;;1.60;1.00;;;14.60;52.20;;;;;;5013781;28;20425;-47
2021/05/22 01:35:25;;;;;;;2.50;0.93;;;14.70;52.00;;;;;;5014380;28;20905;-46
2021/05/22 01:37:51;;;;;;;1.70;0.83;;;14.70;52.10;;;;;;5013292;28;20483;-46
2021/05/22 01:40:16;;;;;;;1.23;0.90;;;14.80;52.10;;;;;;5009459;28;20482;-45
2021/05/22 01:42:42;;;;;;;2.60;0.80;;;14.80;51.80;;;;;;5013358;28;20229;-46
2021/05/22 01:45:15;;;;;;;1.00;1.00;;;15.00;51.50;;;;;;5014452;28;20268;-46
2021/05/22 01:47:45;;;;;;;0.97;0.60;;;15.00;51.40;;;;;;5013579;28;20576;-47
2021/05/22 01:50:13;;;;;;;0.70;0.70;;;14.80;51.70;;;;;;5013821;28;20924;-45
2021/05/22 01:52:42;;;;;;;1.50;1.00;;;14.90;51.80;;;;;;5011780;28;20522;-46
2021/05/22 01:55:09;;;;;;;1.40;1.03;;;15.00;51.70;;;;;;5014708;28;20785;-46
2021/05/22 01:57:35;;;;;;;0.77;0.70;;;14.80;51.80;;;;;;5013553;28;20969;-45
2021/05/22 02:00:03;;;;;;;1.20;1.00;;;14.70;52.10;;;;;;5013739;28;20507;-45
2021/05/22 02:02:28;;;;;;;0.97;0.87;;;14.80;52.60;;;;;;5013361;28;20336;-45
2021/05/22 02:04:57;;;;;;;0.97;0.63;;;14.60;52.80;;;;;;5014026;28;20496;-45
2021/05/22 02:07:24;;;;;;;1.57;0.80;;;14.50;53.80;;;;;;5014135;28;20194;-47
2021/05/22 02:09:50;;;;;;;0.80;0.60;;;14.50;56.10;;;;;;5013466;28;20797;-45
2021/05/22 02:12:16;;;;;;;1.97;0.80;;;14.80;56.80;;;;;;5013488;28;20843;-46
2021/05/22 02:14:43;;;;;;;1.40;0.90;;;14.90;56.90;;;;;;5013217;28;20425;-46
2021/05/22 02:17:13;;;;;;;1.77;0.70;;;15.00;56.60;;;;;;5013622;28;20428;-45
2021/05/22 02:19:42;;;;;;;0.80;0.70;;;15.10;56.80;;;;;;5011904;28;20421;-45
2021/05/22 02:22:11;;;;;;;2.77;0.80;;;15.10;56.40;;;;;;5013275;28;20481;-46
2021/05/22 02:24:37;;;;;;;0.93;0.60;;;15.10;56.60;;;;;;5012996;28;20417;-45
2021/05/22 02:27:04;;;;;;;1.17;0.80;;;15.30;56.40;;;;;;5013651;28;20452;-45
2021/05/22 02:29:35;;;;;;;1.33;0.67;;;15.40;56.40;;;;;;5012827;28;20262;-45
2021/05/22 02:32:02;;;;;;;2.40;0.80;;;15.40;56.10;;;;;;5013493;28;20778;-46
2021/05/22 02:34:33;;;;;;;1.00;0.83;;;15.30;55.40;;;;;;5013072;28;20509;-46
2021/05/22 02:36:59;;;;;;;3.03;0.73;;;15.40;55.70;;;;;;5013382;28;20413;-48
2021/05/22 02:39:26;;;;;;;1.57;0.70;;;15.40;55.80;;;;;;5006944;28;20492;-45
2021/05/22 02:41:55;;;;;;;2.57;0.60;;;15.40;55.90;;;;;;5012858;28;20520;-46
2021/05/22 02:44:25;;;;;;;0.70;0.70;;;15.30;56.10;;;;;;5013183;28;20440;-46
2021/05/22 02:46:52;;;;;;;0.73;0.70;;;15.00;56.50;;;;;;5011504;28;20463;-49
2021/05/22 02:49:25;;;;;;;2.20;0.70;;;14.60;57.30;;;;;;5012531;28;20852;-46
2021/05/22 02:51:53;;;;;;;1.77;1.10;;;14.40;58.20;;;;;;5012358;28;20955;-45
2021/05/22 02:54:21;;;;;;;2.10;1.10;;;14.10;58.60;;;;;;5012554;28;21177;-46
2021/05/22 02:56:48;;;;;;;1.10;0.70;;;14.10;59.50;;;;;;5012987;28;20417;-45
2021/05/22 02:59:15;;;;;;;1.67;0.60;;;14.20;59.70;;;;;;5011577;28;20433;-46
2021/05/22 03:01:41;;;;;;;1.10;0.70;;;14.30;59.00;;;;;;5012188;28;20516;-47
2021/05/22 03:04:06;;;;;;;0.80;0.80;;;14.50;59.10;;;;;;5012399;28;20429;-46
2021/05/22 03:06:33;;;;;;;0.60;0.60;;;14.70;58.60;;;;;;5013132;28;20923;-45
2021/05/22 03:08:58;;;;;;;1.97;0.63;;;14.70;58.50;;;;;;5012273;28;20201;-45
2021/05/22 03:11:24;;;;;;;2.20;0.80;;;14.60;58.70;;;;;;5012282;28;20421;-47
2021/05/22 03:13:50;;;;;;;0.83;0.77;;;14.60;58.80;;;;;;5010606;28;20226;-45
2021/05/22 03:16:16;;;;;;;1.10;0.77;;;14.60;58.50;;;;;;5012589;28;20201;-45
2021/05/22 03:18:41;;;;;;;0.67;0.60;;;14.50;58.10;;;;;;5012027;28;20614;-45
2021/05/22 03:21:07;;;;;;;1.00;0.87;;;14.50;58.60;;;;;;5012157;28;20198;-45
2021/05/22 03:23:33;;;;;;;1.47;0.80;;;14.50;58.70;;;;;;5011949;28;20558;-49
2021/05/22 03:25:59;;;;;;;1.20;0.70;;;14.70;58.40;;;;;;5012373;28;20429;-49
2021/05/22 03:28:25;;;;;;;1.53;1.00;;;14.80;58.20;;;;;;5011801;28;20429;-46
2021/05/22 03:30:51;;;;;;;1.10;0.80;;;14.80;57.90;;;;;;5012358;28;20675;-45
2021/05/22 03:33:17;;;;;;;1.73;0.80;;;14.80;57.60;;;;;;5011608;28;20201;-46
2021/05/22 03:35:43;;;;;;;1.93;1.30;;;14.60;57.60;;;;;;5012129;28;20420;-47
2021/05/22 03:38:09;;;;;;;3.17;1.10;;;14.60;58.00;;;;;;5010823;28;20257;-47
2021/05/22 03:40:34;;;;;;;1.67;1.00;;;14.60;58.40;;;;;;5011224;28;20807;-49
2021/05/22 03:43:00;;;;;;;2.03;0.87;;;14.50;58.40;;;;;;5011243;28;20217;-45
2021/05/22 03:45:26;;;;;;;3.73;1.00;;;14.50;58.40;;;;;;5008553;28;20551;-46
2021/05/22 03:47:51;;;;;;;4.80;1.13;;;14.40;58.50;;;;;;4991844;28;20202;-45
2021/05/22 03:50:17;;;;;;;1.07;0.93;;;14.50;58.40;;;;;;4992665;28;20194;-46
2021/05/22 03:52:43;;;;;;;2.70;1.30;;;14.50;58.20;;;;;;4991498;28;20654;-46
2021/05/22 03:55:11;;;;;;;1.47;1.20;;;14.40;58.60;;;;;;4992329;28;20437;-46
2021/05/22 03:57:37;;;;;;;3.87;1.37;;;14.40;58.40;;;;;;4991673;28;20222;-45
2021/05/22 04:00:05;;;;;;;2.47;1.10;;;14.40;58.30;;;;;;4992349;28;20425;-45
2021/05/22 04:02:31;;;;;;;1.10;0.83;;;14.40;58.40;;;;;;4991396;28;20525;-47
2021/05/22 04:04:57;;;;;;;2.73;1.17;;;14.40;58.70;;;;;;4990460;28;20454;-46
2021/05/22 04:07:23;;;;;;;2.23;1.30;;;14.20;58.40;;;;;;4992653;28;20433;-46
2021/05/22 04:09:48;;;;;;;1.87;1.20;;;14.40;58.30;;;;;;4991502;28;20946;-47
2021/05/22 04:12:14;;;;;;;1.00;0.90;;;14.20;58.00;;;;;;4992027;28;20195;-46
2021/05/22 04:14:39;;;;;;;2.50;1.00;;;14.30;58.30;;;;;;4991513;28;20579;-45
2021/05/22 04:17:05;;;;;;;2.90;1.07;;;14.30;57.80;;;;;;4992409;28;20633;-45
2021/05/22 04:19:31;;;;;;;2.60;1.30;;;14.10;57.80;;;;;;4991404;28;20198;-45
2021/05/22 04:21:56;;;;;;;2.30;1.10;;;14.20;58.20;;;;;;4991736;28;20277;-45
2021/05/22 04:24:22;;;;;;;1.63;0.80;;;14.10;58.40;;;;;;4991425;28;20217;-46
2021/05/22 04:26:48;;;;;;;2.77;0.90;;;14.00;57.60;;;;;;5005059;28;20653;-45
2021/05/22 04:29:13;;;;;;;2.23;0.87;;;14.00;58.00;;;;;;5011002;28;20661;-45
2021/05/22 04:31:39;;;;;;;1.63;1.00;;;13.90;58.00;;;;;;5009729;28;20198;-45
2021/05/22 04:34:04;;;;;;;1.07;0.93;;;14.00;58.10;;;;;;5010853;28;20197;-45
2021/05/22 04:36:30;;;;;;;1.70;0.83;;;14.00;57.80;;;;;;5012073;28;20193;-46
2021/05/22 04:38:56;;;;;;;1.47;0.70;;;13.80;57.70;;;;;;5010807;28;20574;-45
2021/05/22 04:41:21;;;;;;;4.27;1.17;;;13.60;57.70;;;;;;5001194;28;20555;-46
2021/05/22 04:43:47;;;;;;;0.93;0.80;;;13.80;58.10;;;;;;4991441;28;20608;-45
2021/05/22 04:46:12;;;;;;;3.43;1.73;;;13.90;58.00;;;;;;4991912;28;20190;-45
2021/05/22 04:48:38;;;;;;;0.90;0.80;;;14.00;58.00;;;;;;4991412;28;20566;-46
2021/05/22 04:51:04;;;;;;;4.23;0.90;;;14.00;57.90;;;;;;4991685;28;20601;-45
2021/05/22 04:53:31;;;;;;;1.90;1.03;;;14.10;57.20;;;;;;4991404;28;20198;-45
2021/05/22 04:55:57;;;;;;;1.53;0.70;;;14.20;57.10;;;;;;4991779;28;20450;-45
2021/05/22 04:58:22;;;;;;;1.10;0.70;;;14.20;57.10;;;;;;4989725;28;20461;-46
2021/05/22 05:00:48;;;;;;;0.80;0.80;;;14.30;57.00;;;;;;4991843;28;20194;-47
2021/05/22 05:03:13;;;;;;;0.80;0.80;;;14.50;56.90;;;;;;4990902;28;20233;-45
2021/05/22 05:05:39;;;;;;;0.93;0.87;;;14.40;56.80;;;;;;4991766;28;20194;-45
2021/05/22 05:08:05;;;;;;;0.70;0.70;;;14.30;56.20;;;;;;4990917;28;20195;-45
2021/05/22 05:10:30;;;;;;;1.20;0.87;;;14.50;56.70;;;;;;4991853;28;20267;-45
2021/05/22 05:12:56;;;;;;;0.97;0.73;;;14.40;56.20;;;;;;4990914;28;20214;-45
2021/05/22 05:15:22;;;;;;;0.90;0.63;;;14.30;56.20;;;;;;4992057;28;20654;-45
2021/05/22 05:17:47;;;;;;;0.80;0.80;;;14.50;56.50;;;;;;4990924;28;20305;-45
2021/05/22 05:20:13;;;;;;;2.83;1.10;;;14.70;56.00;;;;;;4991821;28;20191;-45
2021/05/22 05:22:39;;;;;;;2.10;1.20;;;15.00;55.90;;;;;;4993393;28;20226;-45
2021/05/22 05:25:06;;;;;;;2.30;0.83;;;15.00;55.20;;;;;;4993567;28;20226;-45
2021/05/22 05:27:32;;;;;;;0.90;0.90;;;15.10;55.00;;;;;;5013196;28;20671;-46
2021/05/22 05:29:58;;;;;;;1.63;0.70;;;15.10;54.60;;;;;;5014699;28;20453;-45
2021/05/22 05:32:24;;;;;;;2.90;1.13;;;15.30;54.70;;;;;;5014090;28;20685;-46
2021/05/22 05:34:49;;;;;;;0.70;0.70;;;15.20;54.30;;;;;;5014264;28;20460;-46
2021/05/22 05:37:15;;;;;;;3.23;0.80;;;15.30;54.90;;;;;;5014625;28;20185;-47
2021/05/22 05:39:41;;;;;;;0.70;0.70;;;15.40;55.00;;;;;;5013496;28;20234;-45
2021/05/22 05:42:07;;;;;;;1.67;0.83;;;15.60;55.20;;;;;;5000898;28;20230;-45
2021/05/22 05:44:33;;;;;;;1.17;0.77;;;15.70;54.90;;;;;;5004814;28;20626;-45
2021/05/22 05:46:58;;;;;;;1.00;0.83;;;15.80;55.20;;;;;;4994692;28;20546;-47
2021/05/22 05:49:28;;;;;;;1.07;0.97;;;15.80;55.00;;;;;;4994618;28;20434;-45
2021/05/22 05:51:55;;;;;;;1.07;0.80;;;15.90;54.80;;;;;;4992864;28;20198;-45
2021/05/22 05:54:21;;;;;;;3.90;0.80;;;15.90;54.30;;;;;;4994255;28;20438;-50
2021/05/22 05:56:47;;;;;;;0.80;0.80;;;15.80;54.30;;;;;;4994349;28;20798;-47
2021/05/22 05:59:12;;;;;;;1.40;0.60;;;15.90;54.60;;;;;;4994138;28;20190;-46
2021/05/22 06:01:38;;;;;;;1.77;0.80;;;16.00;54.70;;;;;;4994041;28;20387;-45
2021/05/22 06:04:05;;;;;;;1.20;0.90;;;16.00;54.80;;;;;;4993831;28;20199;-48
2021/05/22 06:06:31;;;;;;;6.00;1.30;;;15.90;54.70;;;;;;4994096;28;20333;-46
2021/05/22 06:08:57;;;;;;;4.20;0.90;;;15.90;54.70;;;;;;4994157;28;20430;-47
2021/05/22 06:11:25;;;;;;;0.83;0.80;;;15.70;53.90;;;;;;4994170;28;20864;-50
2021/05/22 06:13:51;;;;;;;1.10;0.93;;;15.70;54.70;;;;;;4993518;28;20917;-46
2021/05/22 06:16:25;;;;;;;1.53;0.90;;;15.80;54.90;;;;;;4994525;28;20521;-47
2021/05/22 06:18:52;;;;;;;5.80;1.20;;;15.80;54.80;;;;;;4992142;28;20457;-46
2021/05/22 06:21:18;;;;;;;2.63;0.90;;;15.60;54.30;;;;;;4993598;28;20453;-48
2021/05/22 06:23:44;;;;;;;1.97;1.00;;;15.80;54.50;;;;;;4993298;28;21085;-48
2021/05/22 06:26:09;;;;;;;3.60;1.80;;;15.90;54.70;;;;;;5001598;28;20186;-47
2021/05/22 06:28:35;;;;;;;1.93;0.80;;;16.00;54.70;;;;;;5013093;28;20205;-45
2021/05/22 06:31:01;;;;;;;3.23;0.90;;;16.00;54.10;;;;;;5013084;28;20202;-49
2021/05/22 06:33:28;;;;;;;3.97;1.37;;;15.90;53.80;;;;;;5011849;28;20209;-47
2021/05/22 06:35:53;;;;;;;1.37;0.97;;;15.90;54.00;;;;;;5013451;28;20516;-45
2021/05/22 06:38:19;;;;;;;2.60;1.10;;;16.00;54.10;;;;;;5008744;28;20589;-47
2021/05/22 06:40:48;;;;;;;2.80;1.13;;;16.20;53.50;;;;;;5012100;28;20202;-46
2021/05/22 06:43:13;;;;;;;2.87;1.33;;;16.40;53.40;;;;;;5012415;28;20597;-51
2021/05/22 06:45:40;;;;;;;2.53;1.03;;;16.70;53.00;;;;;;5011656;28;20447;-48
2021/05/22 06:48:10;;;;;;;1.63;1.07;;;16.80;52.80;;;;;;5012752;28;20256;-46
2021/05/22 06:50:36;;;;;;;3.10;1.43;;;16.90;52.00;;;;;;5013277;28;20475;-46
2021/05/22 06:53:03;;;;;;;4.53;1.30;;;16.90;51.30;;;;;;5012134;28;20436;-46
2021/05/22 06:55:29;;;;;;;1.87;1.17;;;16.80;51.20;;;;;;5013134;28;20428;-47
2021/05/22 06:57:55;;;;;;;1.60;1.00;;;16.80;51.40;;;;;;5012571;28;20836;-46
2021/05/22 07:00:21;;;;;;;1.70;1.03;;;16.80;51.60;;;;;;5013177;28;20233;-46
2021/05/22 07:02:46;;;;;;;3.63;1.20;;;16.80;52.30;;;;;;5011982;28;20218;-50
2021/05/22 07:05:13;;;;;;;5.07;1.27;;;16.70;52.10;;;;;;5012573;28;20795;-46
2021/05/22 07:07:39;;;;;;;2.03;1.10;;;16.80;51.10;;;;;;5012201;28;20320;-45
2021/05/22 07:10:06;;;;;;;1.87;1.00;;;16.60;50.40;;;;;;5011174;28;20429;-46
2021/05/22 07:12:32;;;;;;;1.70;1.27;;;16.40;50.80;;;;;;5012118;28;21307;-49
2021/05/22 07:14:57;;;;;;;2.73;0.93;;;16.50;51.60;;;;;;5012534;28;20429;-45
2021/05/22 07:17:23;;;;;;;10.80;6.70;;;16.60;51.00;;;;;;5011497;28;20749;-47
2021/05/22 07:19:48;;;;;;;2.00;1.30;;;16.80;51.40;;;;;;5012041;28;20484;-50
2021/05/22 07:22:14;;;;;;;3.07;1.73;;;16.90;50.90;;;;;;5012094;28;20225;-48
2021/05/22 07:24:40;;;;;;;3.80;1.63;;;16.80;50.50;;;;;;5011849;28;20233;-46
2021/05/22 07:27:06;;;;;;;4.80;1.53;;;16.50;50.30;;;;;;5012417;28;20194;-46
2021/05/22 07:29:32;;;;;;;3.37;1.10;;;16.50;50.90;;;;;;5011946;28;20751;-48
2021/05/22 07:31:57;;;;;;;3.23;1.30;;;16.60;51.00;;;;;;5012194;28;20198;-50
2021/05/22 07:34:23;;;;;;;1.93;1.20;;;16.60;50.30;;;;;;5012128;28;20202;-46
2021/05/22 07:36:49;;;;;;;2.17;1.60;;;16.80;49.20;;;;;;5010447;28;20194;-49
2021/05/22 07:39:15;;;;;;;4.13;1.40;;;16.70;49.60;;;;;;5006177;28;20328;-50
2021/05/22 07:41:42;;;;;;;1.80;1.30;;;16.50;47.90;;;;;;5012026;28;20217;-49
2021/05/22 07:44:08;;;;;;;2.97;1.10;;;16.60;48.30;;;;;;5011746;28;20421;-48
2021/05/22 07:46:34;;;;;;;5.07;0.90;;;16.70;48.30;;;;;;5012064;28;20763;-50
2021/05/22 07:49:00;;;;;;;2.70;1.33;;;16.90;48.10;;;;;;5011500;28;20532;-47
2021/05/22 07:51:26;;;;;;;1.73;1.00;;;16.90;47.20;;;;;;5012003;28;20433;-50
2021/05/22 07:53:51;;;;;;;2.43;1.20;;;16.90;47.00;;;;;;5011477;28;20788;-50
2021/05/22 07:56:17;;;;;;;3.53;1.00;;;17.00;46.90;;;;;;5011949;28;20548;-50
2021/05/22 07:58:43;;;;;;;4.20;1.43;;;17.10;46.10;;;;;;5011499;28;20202;-48
2021/05/22 08:01:08;;;;;;;3.43;1.30;;;16.90;45.90;;;;;;5011860;28;20240;-49
2021/05/22 08:03:34;;;;;;;3.90;0.90;;;16.80;45.50;;;;;;5009363;28;20260;-48
2021/05/22 08:05:59;;;;;;;4.47;1.27;;;16.80;45.80;;;;;;5011917;28;20204;-49
2021/05/22 08:08:25;;;;;;;2.83;1.03;;;17.10;45.60;;;;;;5011575;28;20193;-47
2021/05/22 08:10:50;;;;;;;6.03;2.53;;;17.00;45.60;;;;;;5011467;28;20182;-50
2021/05/22 08:13:16;;;;;;;8.80;1.20;;;17.00;47.50;;;;;;5011653;28;20657;-46
2021/05/22 08:15:42;;;;;;;1.93;1.00;;;17.00;45.40;;;;;;5011733;28;20272;-47
2021/05/22 08:18:08;;;;;;;2.90;1.50;;;17.00;44.30;;;;;;5011111;28;20177;-49
2021/05/22 08:20:33;;;;;;;2.57;1.37;;;17.20;44.70;;;;;;5011665;28;20205;-48
2021/05/22 08:22:59;;;;;;;1.90;1.57;;;17.50;43.80;;;;;;5010677;28;20244;-50
2021/05/22 08:25:25;;;;;;;1.47;0.97;;;17.60;42.10;;;;;;5011939;28;20194;-50
2021/05/22 08:27:53;;;;;;;3.07;2.13;;;17.70;41.60;;;;;;5010947;28;20276;-50
2021/05/22 08:30:20;;;;;;;4.00;1.53;;;17.90;41.30;;;;;;5010143;28;20432;-50
2021/05/22 08:32:46;;;;;;;4.70;1.70;;;17.80;40.30;;;;;;5010799;28;20433;-49
2021/05/22 08:35:13;;;;;;;3.97;1.20;;;17.80;40.20;;;;;;5011660;28;20527;-50
2021/05/22 08:37:39;;;;;;;4.00;1.20;;;17.60;40.20;;;;;;5010715;28;20528;-50
2021/05/22 08:40:06;;;;;;;3.07;1.07;;;17.70;40.00;;;;;;5006226;28;20429;-51
2021/05/22 08:42:32;;;;;;;7.20;1.50;;;17.60;40.00;;;;;;5010536;28;20487;-50
2021/05/22 08:45:24;;;;;;;3.23;1.97;;;17.80;40.00;;;;;;5011799;28;20492;-50
2021/05/22 08:47:52;;;;;;;2.93;0.90;;;17.80;39.20;;;;;;5009613;28;21527;-49
2021/05/22 08:50:19;;;;;;;4.13;1.10;;;18.10;39.40;;;;;;5011633;28;20468;-51
2021/05/22 08:52:45;;;;;;;1.83;1.00;;;17.80;38.50;;;;;;5010626;28;22263;-50
2021/05/22 08:55:12;;;;;;;3.93;0.70;;;17.80;38.60;;;;;;5011321;28;20436;-49
2021/05/22 08:57:38;;;;;;;1.63;1.00;;;17.90;39.40;;;;;;5012156;28;20901;-48
2021/05/22 09:00:11;;;;;;;5.90;1.20;;;17.90;37.70;;;;;;5015339;28;20999;-51
2021/05/22 09:02:38;;;;;;;2.00;0.97;;;18.20;38.30;;;;;;5014166;28;20538;-50
2021/05/22 09:05:17;;;;;;;4.47;0.90;;;18.30;37.50;;;;;;5015206;28;20479;-51
2021/05/22 09:07:50;;;;;;;2.40;1.20;;;18.70;38.30;;;;;;5014475;28;20535;-50
2021/05/22 09:10:17;;;;;;;1.60;1.20;;;19.00;38.00;;;;;;5014777;28;20449;-51
2021/05/22 09:12:45;;;;;;;1.90;1.17;;;19.10;35.50;;;;;;5014250;28;20425;-45
2021/05/22 09:15:23;;;;;;;2.27;1.50;;;19.00;35.80;;;;;;5015105;28;20421;-46
2021/05/22 09:17:53;;;;;;;5.70;1.40;;;19.20;35.40;;;;;;5014251;28;21000;-46
2021/05/22 09:20:22;;;;;;;2.70;1.10;;;19.40;36.30;;;;;;5014659;28;20451;-46
2021/05/22 09:23:09;;;;;;;4.43;1.67;;;19.70;36.00;;;;;;5012398;28;20481;-46
2021/05/22 09:25:38;;;;;;;6.27;1.00;;;19.60;34.50;;;;;;5014682;28;20494;-46
2021/05/22 09:28:06;;;;;;;1.33;1.00;;;19.60;34.30;;;;;;5014110;28;20445;-46
2021/05/22 09:30:33;;;;;;;1.23;1.00;;;19.50;33.50;;;;;;5014170;28;20437;-46
2021/05/22 09:32:59;;;;;;;1.10;0.80;;;19.50;33.50;;;;;;5014253;28;20465;-46
2021/05/22 09:35:26;;;;;;;6.83;1.17;;;19.60;33.70;;;;;;5014597;28;20460;-47
2021/05/22 09:37:58;;;;;;;1.23;0.87;;;19.90;34.00;;;;;;5013467;28;20465;-46
2021/05/22 09:40:29;;;;;;;2.13;0.80;;;19.90;32.90;;;;;;5010368;28;20440;-46
2021/05/22 09:42:57;;;;;;;1.00;0.93;;;20.10;32.60;;;;;;5013883;28;20484;-45
2021/05/22 09:45:30;;;;;;;1.70;0.90;;;20.30;31.90;;;;;;5014003;28;20524;-51
2021/05/22 09:48:17;;;;;;;3.03;0.93;;;20.30;31.80;;;;;;5013742;28;20830;-47
2021/05/22 09:50:51;;;;;;;1.53;1.20;;;20.00;32.50;;;;;;5011696;28;20452;-46
2021/05/22 09:53:35;;;;;;;3.53;1.40;;;20.40;33.30;;;;;;5013483;28;20564;-46
2021/05/22 09:56:20;;;;;;;1.77;1.10;;;20.50;31.40;;;;;;5013894;28;20447;-46
2021/05/22 09:58:55;;;;;;;3.30;1.00;;;20.70;31.90;;;;;;5013602;28;20441;-46
2021/05/22 10:01:35;;;;;;;2.40;1.40;;;20.70;31.00;;;;;;5013676;28;20436;-46
2021/05/22 10:04:18;;;;;;;2.30;0.93;;;20.90;32.00;;;;;;5013603;28;20774;-46
2021/05/22 10:06:44;;;;;;;1.20;0.80;;;20.80;31.30;;;;;;5013968;28;20941;-45
2021/05/22 10:09:11;;;;;;;1.10;0.97;;;20.90;31.00;;;;;;5013126;28;20475;-46
2021/05/22 10:12:06;;;;;;;3.53;1.77;;;20.90;31.60;;;;;;5013629;28;20209;-47
2021/05/22 10:14:43;;;;;;;1.33;1.10;;;20.90;30.80;;;;;;5013138;28;20429;-47
2021/05/22 10:17:11;;;;;;;3.30;0.80;;;20.90;30.80;;;;;;5012239;28;20417;-45
2021/05/22 10:19:38;;;;;;;3.53;1.17;;;20.80;31.00;;;;;;5013391;28;20905;-47
2021/05/22 10:22:05;;;;;;;0.93;0.80;;;20.50;31.30;;;;;;5013369;28;20477;-47
2021/05/22 10:24:31;;;;;;;1.33;1.23;;;20.40;32.10;;;;;;5012921;28;20428;-46
2021/05/22 10:26:58;;;;;;;4.30;1.13;;;20.30;32.40;;;;;;5013917;28;20444;-47
2021/05/22 10:29:24;;;;;;;1.80;0.90;;;20.50;32.00;;;;;;5013243;28;20276;-46
2021/05/22 10:31:52;;;;;;;4.97;1.17;;;20.80;32.20;;;;;;5012978;28;20601;-46
2021/05/22 10:34:22;;;;;;;4.17;1.27;;;20.80;31.90;;;;;;5012872;28;20437;-46
2021/05/22 10:36:55;;;;;;;2.00;1.10;;;20.90;31.60;;;;;;5013431;28;20806;-45
2021/05/22 10:39:33;;;;;;;3.13;0.90;;;20.70;31.20;;;;;;5002677;28;20469;-46
2021/05/22 10:42:00;;;;;;;2.40;1.10;;;20.40;30.90;;;;;;5010987;28;20476;-46
2021/05/22 10:44:34;;;;;;;4.93;1.40;;;20.30;31.30;;;;;;5012436;28;20437;-45
2021/05/22 10:47:11;;;;;;;1.50;1.27;;;20.30;31.30;;;;;;5012925;28;20432;-47
2021/05/22 10:49:51;;;;;;;3.30;1.20;;;20.50;31.60;;;;;;5012502;28;20459;-46
2021/05/22 10:52:25;;;;;;;3.57;1.67;;;20.70;31.20;;;;;;5012812;28;20436;-46
2021/05/22 10:54:57;;;;;;;7.27;1.80;;;20.70;32.10;;;;;;5012681;28;20429;-46
2021/05/22 10:57:24;;;;;;;2.73;1.33;;;20.70;32.30;;;;;;5012934;28;20536;-46
2021/05/22 11:00:19;;;;;;;9.20;1.40;;;20.90;32.40;;;;;;5012117;28;20432;-46
2021/05/22 11:03:08;;;;;;;1.67;0.83;;;21.00;33.00;;;;;;5011408;28;20495;-46
2021/05/22 11:05:41;;;;;;;3.10;1.60;;;21.00;31.70;;;;;;5012906;28;20528;-45
2021/05/22 11:08:07;;;;;;;1.33;0.97;;;21.30;31.20;;;;;;5010227;28;20448;-46
2021/05/22 11:10:41;;;;;;;2.10;1.00;;;21.30;29.30;;;;;;5012647;28;20417;-46
2021/05/22 11:13:30;;;;;;;2.20;1.07;;;21.30;29.10;;;;;;5012427;28;20280;-46
2021/05/22 11:15:59;;;;;;;3.97;0.90;;;21.40;29.20;;;;;;5012812;28;20471;-48
2021/05/22 11:18:25;;;;;;;2.27;1.00;;;21.60;29.70;;;;;;5012116;28;20432;-46
2021/05/22 11:21:15;;;;;;;1.87;1.00;;;21.70;29.00;;;;;;5011692;28;20455;-46
2021/05/22 11:24:00;;;;;;;1.23;1.00;;;21.40;27.80;;;;;;5012208;28;20528;-47
2021/05/22 11:26:53;;;;;;;1.50;1.40;;;21.50;28.80;;;;;;5012688;28;20560;-46
2021/05/22 11:29:21;;;;;;;6.80;1.07;;;21.70;27.90;;;;;;5011694;28;20448;-45
2021/05/22 11:31:47;;;;;;;3.63;0.80;;;21.80;28.40;;;;;;5012293;28;20992;-46
2021/05/22 11:34:22;;;;;;;1.50;1.10;;;22.00;28.00;;;;;;5011613;28;20443;-48
2021/05/22 11:37:09;;;;;;;1.00;0.90;;;21.90;26.50;;;;;;5011706;28;20433;-47
2021/05/22 11:39:39;;;;;;;4.87;1.10;;;21.90;26.50;;;;;;5006420;28;20465;-46
2021/05/22 11:42:27;;;;;;;1.73;0.90;;;21.70;27.00;;;;;;4995787;28;20546;-46
2021/05/22 11:44:55;;;;;;;1.37;1.27;;;21.90;27.10;;;;;;4992250;28;20436;-46
2021/05/22 11:47:21;;;;;;;1.63;1.13;;;21.90;27.70;;;;;;4992562;28;20472;-46
2021/05/22 11:49:47;;;;;;;1.27;0.70;;;22.10;27.90;;;;;;4991707;28;20422;-48
2021/05/22 11:52:42;;;;;;;2.33;0.93;;;22.10;27.40;;;;;;4992242;28;20936;-46
2021/05/22 11:55:22;;;;;;;3.03;1.27;;;22.40;27.30;;;;;;4987139;28;20210;-46
2021/05/22 11:58:04;;;;;;;1.40;1.30;;;22.60;26.30;;;;;;4991882;28;20448;-45
2021/05/22 12:00:30;;;;;;;1.27;0.83;;;22.70;27.00;;;;;;4999379;28;20452;-48
2021/05/22 12:02:56;;;;;;;4.17;1.20;;;22.60;26.40;;;;;;5009804;28;20562;-46
2021/05/22 12:05:21;;;;;;;2.90;1.00;;;22.60;26.60;;;;;;5012044;28;20321;-47
2021/05/22 12:07:47;;;;;;;1.57;0.60;;;22.80;26.90;;;;;;5011188;28;20200;-46
2021/05/22 12:10:14;;;;;;;1.77;0.77;;;22.80;26.30;;;;;;5011755;28;20285;-47
2021/05/22 12:12:39;;;;;;;1.33;1.00;;;22.80;25.60;;;;;;5011096;28;20456;-46
2021/05/22 12:15:05;;;;;;;3.27;1.03;;;22.80;26.20;;;;;;5011934;28;20474;-46
2021/05/22 12:17:43;;;;;;;12.07;2.27;;;22.80;26.60;;;;;;5011359;28;20194;-48
2021/05/22 12:20:09;;;;;;;2.10;1.10;;;23.10;27.50;;;;;;5011892;28;20980;-46
2021/05/22 12:22:35;;;;;;;4.70;1.50;;;23.00;26.30;;;;;;5010878;28;20492;-46
2021/05/22 12:25:00;;;;;;;5.43;1.33;;;23.00;26.30;;;;;;5011519;28;20964;-46
2021/05/22 12:27:26;;;;;;;7.30;2.40;;;22.90;27.20;;;;;;5010415;28;20209;-49
2021/05/22 12:29:54;;;;;;;13.90;2.17;;;22.90;27.00;;;;;;5010933;28;20267;-48
2021/05/22 12:32:21;;;;;;;1.57;0.90;;;23.00;26.30;;;;;;5015614;28;20626;-46
2021/05/22 12:34:54;;;;;;;8.97;2.13;;;22.90;25.60;;;;;;5014996;28;20424;-46
2021/05/22 12:37:22;;;;;;;3.70;1.30;;;22.80;25.90;;;;;;5015649;28;20925;-46
2021/05/22 12:39:56;;;;;;;5.20;1.30;;;22.40;26.00;;;;;;5014959;28;20423;-46
2021/05/22 12:42:33;;;;;;;2.70;1.33;;;22.60;27.00;;;;;;4996887;28;21011;-46
2021/05/22 12:45:09;;;;;;;3.07;1.67;;;22.80;27.00;;;;;;4995638;28;20433;-46
2021/05/22 12:47:42;;;;;;;2.77;1.87;;;23.00;27.20;;;;;;4995356;28;20811;-47
2021/05/22 12:50:10;;;;;;;7.60;2.37;;;22.80;27.30;;;;;;4995932;28;20453;-46
2021/05/22 12:52:52;;;;;;;7.33;1.90;;;23.00;26.90;;;;;;4995403;28;20794;-47